createdAt,value
2019-01-18T00:01:19.431Z,4.90
2019-01-18T00:03:51.042Z,4.67
2019-01-18T00:06:22.606Z,5.50
2019-01-18T00:08:53.831Z,5.47
2019-01-18T00:11:25.026Z,5.97
2019-01-18T00:13:56.246Z,5.90
2019-01-18T00:16:27.505Z,6.47
2019-01-18T00:18:58.740Z,6.17
2019-01-18T00:21:30.019Z,8.80
2019-01-18T00:24:01.188Z,5.97
2019-01-18T00:26:32.410Z,5.90
2019-01-18T00:29:03.636Z,5.97
2019-01-18T00:31:34.850Z,5.93
2019-01-18T00:34:06.047Z,5.17
2019-01-18T00:36:37.384Z,6.13
2019-01-18T00:39:09.300Z,5.60
2019-01-18T00:41:40.476Z,6.10
2019-01-18T00:44:11.716Z,6.40
2019-01-18T00:46:42.910Z,5.43
2019-01-18T00:49:14.161Z,5.70
2019-01-18T00:51:45.396Z,5.97
2019-01-18T00:54:16.587Z,5.57
2019-01-18T00:56:47.843Z,4.27
2019-01-18T00:59:19.025Z,4.10
2019-01-18T01:01:50.215Z,4.23
2019-01-18T01:04:21.522Z,4.53
2019-01-18T01:06:52.738Z,3.67
2019-01-18T01:09:23.916Z,4.57
2019-01-18T01:11:55.147Z,4.77
2019-01-18T01:14:26.346Z,4.37
2019-01-18T01:16:57.534Z,4.30
2019-01-18T01:19:28.784Z,3.63
2019-01-18T01:22:00.190Z,3.70
2019-01-18T01:24:31.417Z,3.90
2019-01-18T01:27:02.575Z,4.23
2019-01-18T01:29:33.746Z,3.83
2019-01-18T01:32:05.242Z,4.07
2019-01-18T01:34:36.435Z,3.77
2019-01-18T01:37:07.631Z,4.10
2019-01-18T01:39:38.807Z,4.17
2019-01-18T01:42:10.026Z,4.13
2019-01-18T01:44:41.292Z,4.47
2019-01-18T01:47:12.535Z,4.83
2019-01-18T01:49:43.734Z,3.87
2019-01-18T01:52:14.866Z,4.43
2019-01-18T01:54:46.082Z,4.10
2019-01-18T01:57:17.257Z,4.00
2019-01-18T01:59:49.987Z,4.07
2019-01-18T02:02:21.379Z,4.60
2019-01-18T02:04:52.623Z,4.10
2019-01-18T02:07:23.791Z,4.83
2019-01-18T02:09:56.124Z,4.00
2019-01-18T02:12:27.347Z,4.43
2019-01-18T02:14:58.524Z,4.40
2019-01-18T02:17:29.807Z,4.43
2019-01-18T02:20:01.073Z,4.70
2019-01-18T02:22:32.350Z,4.17
2019-01-18T02:25:03.488Z,4.57
2019-01-18T02:27:34.835Z,4.17
2019-01-18T02:30:08.379Z,4.50
2019-01-18T02:32:39.681Z,4.40
2019-01-18T02:35:10.901Z,4.60
2019-01-18T02:37:42.073Z,4.50
2019-01-18T02:40:13.636Z,4.53
2019-01-18T02:42:45.013Z,4.00
2019-01-18T02:45:18.246Z,4.70
2019-01-18T02:47:49.451Z,4.03
2019-01-18T02:50:21.413Z,4.67
2019-01-18T02:52:52.669Z,4.67
2019-01-18T02:55:28.812Z,5.53
2019-01-18T02:57:56.759Z,5.40
2019-01-18T03:00:28.017Z,5.57
2019-01-18T03:02:59.202Z,5.53
2019-01-18T03:05:30.386Z,5.20
2019-01-18T03:08:01.579Z,5.00
2019-01-18T03:10:32.902Z,6.13
2019-01-18T03:13:04.080Z,5.33
2019-01-18T03:15:35.296Z,6.17
2019-01-18T03:18:06.457Z,6.37
2019-01-18T03:20:37.649Z,5.77
2019-01-18T03:23:08.916Z,5.40
2019-01-18T03:25:40.178Z,6.17
2019-01-18T03:28:11.401Z,6.33
2019-01-18T03:30:42.667Z,9.20
2019-01-18T03:33:13.909Z,8.87
2019-01-18T03:35:45.049Z,7.47
2019-01-18T03:38:16.265Z,8.10
2019-01-18T03:40:47.439Z,6.23
2019-01-18T03:43:18.635Z,7.73
2019-01-18T03:45:49.815Z,7.37
2019-01-18T03:48:20.967Z,9.03
2019-01-18T03:50:52.282Z,8.43
2019-01-18T03:53:23.487Z,8.30
2019-01-18T03:55:54.718Z,7.63
2019-01-18T03:58:25.861Z,6.20
2019-01-18T04:00:57.107Z,7.33
2019-01-18T04:03:28.316Z,7.27
2019-01-18T04:05:59.520Z,6.47
2019-01-18T04:08:30.707Z,8.10
2019-01-18T04:11:01.940Z,7.83
2019-01-18T04:13:33.124Z,6.73
2019-01-18T04:16:04.329Z,7.30
2019-01-18T04:18:35.603Z,6.60
2019-01-18T04:21:06.813Z,7.10
2019-01-18T04:23:38.016Z,6.37
2019-01-18T04:26:09.184Z,6.77
2019-01-18T04:28:40.344Z,7.53
2019-01-18T04:31:11.507Z,9.10
2019-01-18T04:33:42.734Z,7.67
2019-01-18T04:36:13.903Z,7.43
2019-01-18T04:38:46.151Z,6.93
2019-01-18T04:41:18.458Z,7.63
2019-01-18T04:43:49.608Z,6.70
2019-01-18T04:46:20.833Z,6.67
2019-01-18T04:48:52.070Z,6.63
2019-01-18T04:51:23.244Z,6.13
2019-01-18T04:53:54.417Z,5.97
2019-01-18T04:56:25.677Z,6.20
2019-01-18T04:58:56.837Z,6.47
2019-01-18T05:01:28.234Z,6.37
2019-01-18T05:03:59.432Z,6.40
2019-01-18T05:06:30.641Z,7.07
2019-01-18T05:09:01.821Z,8.23
2019-01-18T05:11:34.187Z,7.27
2019-01-18T05:14:05.510Z,6.13
2019-01-18T05:16:36.701Z,6.50
2019-01-18T05:19:07.936Z,5.73
2019-01-18T05:21:39.138Z,6.13
2019-01-18T05:24:10.330Z,6.07
2019-01-18T05:26:41.585Z,6.80
2019-01-18T05:29:13.852Z,7.00
2019-01-18T05:31:45.001Z,5.60
2019-01-18T05:34:16.194Z,6.93
2019-01-18T05:36:47.363Z,6.20
2019-01-18T05:39:18.560Z,5.73
2019-01-18T05:41:49.819Z,6.37
2019-01-18T05:44:21.006Z,6.73
2019-01-18T05:46:52.252Z,5.80
2019-01-18T05:49:23.428Z,5.80
2019-01-18T05:51:54.675Z,6.27
2019-01-18T05:54:25.923Z,6.40
2019-01-18T05:56:57.140Z,6.10
2019-01-18T05:59:28.371Z,6.33
2019-01-18T06:01:59.562Z,6.37
2019-01-18T06:04:31.116Z,6.07
2019-01-18T06:07:02.249Z,5.63
2019-01-18T06:09:33.419Z,7.27
2019-01-18T06:12:04.571Z,6.90
2019-01-18T06:14:35.805Z,5.90
2019-01-18T06:17:06.957Z,6.30
2019-01-18T06:19:38.284Z,6.60
2019-01-18T06:22:09.553Z,6.63
2019-01-18T06:24:40.672Z,6.53
2019-01-18T06:27:11.904Z,6.30
2019-01-18T06:29:43.108Z,6.20
2019-01-18T06:32:14.298Z,6.33
2019-01-18T06:34:45.527Z,6.00
2019-01-18T06:37:16.759Z,8.30
2019-01-18T06:39:47.962Z,5.87
2019-01-18T06:42:19.146Z,7.07
2019-01-18T06:44:50.327Z,6.57
2019-01-18T06:47:21.500Z,7.37
2019-01-18T06:49:52.637Z,6.83
2019-01-18T06:52:23.790Z,6.60
2019-01-18T06:54:55.033Z,6.20
2019-01-18T06:57:26.182Z,6.23
2019-01-18T06:59:57.343Z,6.57
2019-01-18T07:02:28.567Z,6.73
2019-01-18T07:04:59.763Z,5.60
2019-01-18T07:07:30.929Z,6.20
2019-01-18T07:10:02.160Z,6.43
2019-01-18T07:12:35.647Z,7.53
2019-01-18T07:15:08.348Z,7.50
2019-01-18T07:17:39.526Z,7.10
2019-01-18T07:20:12.649Z,6.43
2019-01-18T07:22:43.788Z,6.87
2019-01-18T07:25:23.060Z,7.13
2019-01-18T07:27:54.180Z,6.47
2019-01-18T07:30:39.838Z,6.53
2019-01-18T07:33:12.711Z,6.43
2019-01-18T07:35:43.991Z,7.23
2019-01-18T07:38:15.202Z,6.47
2019-01-18T07:40:46.359Z,6.40
2019-01-18T07:43:17.655Z,6.40
2019-01-18T07:45:48.802Z,6.90
2019-01-18T07:48:20.030Z,6.83
2019-01-18T07:50:51.206Z,7.00
2019-01-18T07:53:22.401Z,6.13
2019-01-18T07:55:53.549Z,6.80
2019-01-18T07:58:24.734Z,7.20
2019-01-18T08:00:55.945Z,6.70
2019-01-18T08:03:27.099Z,6.07
2019-01-18T08:05:58.330Z,7.37
2019-01-18T08:08:29.495Z,6.60
2019-01-18T08:11:00.653Z,6.13
2019-01-18T08:13:31.860Z,6.17
2019-01-18T08:16:03.086Z,5.37
2019-01-18T08:18:34.290Z,6.27
2019-01-18T08:21:05.525Z,6.83
2019-01-18T08:23:36.683Z,6.50
2019-01-18T08:26:07.909Z,6.37
2019-01-18T08:28:39.184Z,5.80
2019-01-18T08:31:10.441Z,5.87
2019-01-18T08:33:41.608Z,6.20
2019-01-18T08:36:12.754Z,5.87
2019-01-18T08:38:44.004Z,6.30
2019-01-18T08:41:15.210Z,6.40
2019-01-18T08:43:46.441Z,5.73
2019-01-18T08:46:18.709Z,6.20
2019-01-18T08:48:49.977Z,6.23
2019-01-18T08:51:21.166Z,5.43
2019-01-18T08:53:52.337Z,5.83
2019-01-18T08:56:23.596Z,7.30
2019-01-18T08:58:54.755Z,7.27
2019-01-18T09:01:25.944Z,5.87
2019-01-18T09:03:57.161Z,6.13
2019-01-18T09:06:28.435Z,6.40
2019-01-18T09:08:59.615Z,7.10
2019-01-18T09:11:31.034Z,6.27
2019-01-18T09:14:02.132Z,6.00
2019-01-18T09:16:33.391Z,7.67
2019-01-18T09:19:04.591Z,7.07
2019-01-18T09:21:35.772Z,8.83
2019-01-18T09:24:06.974Z,7.07
2019-01-18T09:26:38.276Z,7.50
2019-01-18T09:29:10.302Z,6.17
2019-01-18T09:31:42.636Z,7.07
2019-01-18T09:34:14.066Z,7.13
2019-01-18T09:36:45.271Z,7.60
2019-01-18T09:39:16.489Z,10.87
2019-01-18T09:41:47.671Z,7.90
2019-01-18T09:44:18.864Z,7.70
2019-01-18T09:46:50.078Z,6.47
2019-01-18T09:49:21.236Z,7.03
2019-01-18T09:51:52.358Z,7.03
2019-01-18T09:54:23.493Z,7.30
2019-01-18T09:56:54.713Z,6.40
2019-01-18T09:59:25.890Z,8.07
2019-01-18T10:01:57.074Z,7.67
2019-01-18T10:04:28.278Z,7.17
2019-01-18T10:06:59.465Z,7.30
2019-01-18T10:09:30.694Z,6.33
2019-01-18T10:12:01.851Z,6.60
2019-01-18T10:14:33.173Z,6.47
2019-01-18T10:17:04.364Z,6.30
2019-01-18T10:19:35.518Z,6.00
2019-01-18T10:22:06.820Z,6.50
2019-01-18T10:24:38.008Z,6.83
2019-01-18T10:27:09.179Z,6.90
2019-01-18T10:29:40.315Z,7.60
2019-01-18T10:32:11.488Z,9.20
2019-01-18T10:34:42.629Z,6.60
2019-01-18T10:37:13.826Z,6.27
2019-01-18T10:39:45.120Z,6.40
2019-01-18T10:42:16.329Z,6.83
2019-01-18T10:44:47.514Z,6.33
2019-01-18T10:47:18.714Z,6.93
2019-01-18T10:49:49.894Z,6.67
2019-01-18T10:52:21.064Z,7.00
2019-01-18T10:54:52.294Z,5.30
2019-01-18T10:57:23.467Z,6.73
2019-01-18T10:59:54.658Z,6.30
2019-01-18T11:02:25.832Z,6.23
2019-01-18T11:04:56.978Z,6.77
2019-01-18T11:07:28.176Z,6.73
2019-01-18T11:09:59.360Z,6.47
2019-01-18T11:12:30.522Z,9.47
2019-01-18T11:15:01.660Z,5.97
2019-01-18T11:17:32.811Z,6.13
2019-01-18T11:20:04.627Z,7.60
2019-01-18T11:22:35.776Z,7.23
2019-01-18T11:25:07.430Z,7.50
2019-01-18T11:27:38.565Z,6.67
2019-01-18T11:30:13.302Z,8.30
2019-01-18T11:32:44.688Z,7.03
2019-01-18T11:35:16.732Z,7.27
2019-01-18T11:37:48.873Z,6.37
2019-01-18T11:40:21.431Z,8.27
2019-01-18T11:42:52.596Z,5.80
2019-01-18T11:45:23.719Z,5.57
2019-01-18T11:47:54.960Z,5.97
2019-01-18T11:50:26.485Z,7.90
2019-01-18T11:52:57.629Z,5.53
2019-01-18T11:55:28.812Z,5.93
2019-01-18T11:57:59.984Z,5.23
2019-01-18T12:00:37.645Z,5.50
2019-01-18T12:03:10.713Z,5.53
2019-01-18T12:05:42.188Z,7.30
2019-01-18T12:08:13.750Z,4.60
2019-01-18T12:10:45.068Z,6.50
2019-01-18T12:13:16.345Z,5.77
2019-01-18T12:15:47.556Z,5.57
2019-01-18T12:18:18.841Z,5.87
2019-01-18T12:20:50.399Z,5.97
2019-01-18T12:23:21.614Z,5.40
2019-01-18T12:25:52.865Z,5.23
2019-01-18T12:28:24.091Z,5.27
2019-01-18T12:30:55.457Z,5.13
2019-01-18T12:33:26.658Z,5.20
2019-01-18T12:35:58.034Z,5.20
2019-01-18T12:38:29.228Z,5.17
2019-01-18T12:41:00.433Z,5.00
2019-01-18T12:43:31.681Z,4.97
2019-01-18T12:46:02.920Z,5.33
2019-01-18T12:48:34.212Z,7.13
2019-01-18T12:51:05.565Z,6.77
2019-01-18T12:53:36.864Z,6.53
2019-01-18T12:56:08.194Z,6.43
2019-01-18T12:58:39.517Z,5.47
2019-01-18T13:01:10.705Z,5.17
2019-01-18T13:03:42.046Z,5.17
2019-01-18T13:06:13.304Z,6.53
2019-01-18T13:08:44.517Z,5.20
2019-01-18T13:11:15.770Z,4.87
2019-01-18T13:13:46.935Z,5.10
2019-01-18T13:16:27.342Z,5.27
2019-01-18T13:19:07.527Z,6.97
2019-01-18T13:21:38.702Z,4.90
2019-01-18T13:24:09.948Z,4.50
2019-01-18T13:26:41.300Z,4.63
2019-01-18T13:29:12.559Z,4.40
2019-01-18T13:31:43.726Z,4.63
2019-01-18T13:34:15.012Z,5.33
2019-01-18T13:36:46.254Z,4.50
2019-01-18T13:39:17.434Z,4.70
2019-01-18T13:41:48.681Z,5.07
2019-01-18T13:44:19.892Z,4.40
2019-01-18T13:46:51.075Z,6.20
2019-01-18T13:49:22.324Z,4.33
2019-01-18T13:51:53.504Z,4.27
2019-01-18T13:54:24.687Z,4.57
2019-01-18T13:56:55.919Z,4.50
2019-01-18T13:59:27.080Z,4.47
2019-01-18T14:01:58.378Z,4.80
2019-01-18T14:04:29.544Z,3.93
2019-01-18T14:07:00.706Z,13.10
2019-01-18T14:09:31.935Z,4.67
2019-01-18T14:12:03.091Z,3.97
2019-01-18T14:14:34.516Z,5.07
2019-01-18T14:17:05.691Z,6.93
2019-01-18T14:19:36.913Z,5.60
2019-01-18T14:22:08.178Z,4.83
2019-01-18T14:24:39.379Z,4.43
2019-01-18T14:27:10.629Z,4.73
2019-01-18T14:29:41.789Z,4.60
2019-01-18T14:32:13.145Z,5.43
2019-01-18T14:34:44.368Z,7.03
2019-01-18T14:37:15.530Z,5.03
2019-01-18T14:39:46.910Z,4.23
2019-01-18T14:42:18.178Z,4.23
2019-01-18T14:44:49.621Z,7.93
2019-01-18T14:47:20.763Z,3.77
2019-01-18T14:49:52.069Z,6.33
2019-01-18T14:52:23.195Z,4.63
2019-01-18T14:54:54.443Z,4.43
2019-01-18T14:57:25.669Z,5.00
2019-01-18T14:59:56.912Z,4.80
2019-01-18T15:02:28.212Z,6.13
2019-01-18T15:04:59.369Z,4.93
2019-01-18T15:07:30.609Z,4.77
2019-01-18T15:10:05.160Z,5.00
2019-01-18T15:12:34.826Z,6.93
2019-01-18T15:15:07.211Z,5.67
2019-01-18T15:17:38.364Z,4.93
2019-01-18T15:20:37.615Z,5.40
2019-01-18T15:23:09.016Z,4.80
2019-01-18T15:25:40.337Z,6.40
2019-01-18T15:28:11.571Z,6.30
2019-01-18T15:30:42.869Z,6.30
2019-01-18T15:33:14.195Z,5.53
2019-01-18T15:35:45.355Z,5.97
2019-01-18T15:38:16.614Z,6.03
2019-01-18T15:40:49.535Z,5.70
2019-01-18T15:43:23.044Z,6.80
2019-01-18T15:45:54.246Z,6.67
2019-01-18T15:48:25.485Z,5.27
2019-01-18T15:50:56.752Z,5.03
2019-01-18T15:53:30.399Z,5.70
2019-01-18T15:56:01.670Z,5.67
2019-01-18T15:58:32.907Z,7.27
2019-01-18T16:01:04.117Z,6.57
2019-01-18T16:03:35.283Z,5.07
2019-01-18T16:06:06.488Z,5.10
2019-01-18T16:08:37.719Z,6.03
2019-01-18T16:11:08.921Z,5.37
2019-01-18T16:13:40.106Z,5.53
2019-01-18T16:16:16.686Z,7.80
2019-01-18T16:18:47.863Z,6.33
2019-01-18T16:21:19.140Z,4.87
2019-01-18T16:23:50.344Z,5.37
2019-01-18T16:26:21.529Z,5.30
2019-01-18T16:28:52.709Z,7.30
2019-01-18T16:31:23.856Z,6.07
2019-01-18T16:33:55.066Z,7.97
2019-01-18T16:36:26.253Z,6.63
2019-01-18T16:38:57.518Z,4.93
2019-01-18T16:41:32.720Z,7.73
2019-01-18T16:44:04.042Z,6.03
2019-01-18T16:46:35.241Z,5.27
2019-01-18T16:49:06.402Z,5.20
2019-01-18T16:51:37.587Z,4.50
2019-01-18T16:54:08.863Z,6.20
2019-01-18T16:56:40.090Z,4.70
2019-01-18T16:59:11.364Z,6.60
2019-01-18T17:01:42.552Z,6.53
2019-01-18T17:04:13.721Z,4.37
2019-01-18T17:06:44.978Z,5.63
2019-01-18T17:09:16.252Z,6.13
2019-01-18T17:11:47.413Z,7.53
2019-01-18T17:14:18.723Z,5.17
2019-01-18T17:16:49.904Z,5.03
2019-01-18T17:19:22.150Z,8.70
2019-01-18T17:21:53.338Z,5.97
2019-01-18T17:24:24.573Z,7.77
2019-01-18T17:26:55.736Z,5.97
2019-01-18T17:29:26.982Z,4.97
2019-01-18T17:31:58.173Z,7.83
2019-01-18T17:34:29.353Z,5.50
2019-01-18T17:37:11.159Z,5.37
2019-01-18T17:40:18.606Z,7.10
2019-01-18T17:43:16.300Z,8.13
2019-01-18T17:46:43.478Z,6.80
2019-01-18T17:50:16.900Z,5.07
2019-01-18T17:53:15.647Z,6.43
2019-01-18T17:56:16.097Z,5.10
2019-01-18T17:59:17.154Z,5.87
2019-01-18T18:02:27.799Z,6.10
2019-01-18T18:05:27.091Z,7.03
2019-01-18T18:08:34.274Z,7.87
2019-01-18T18:11:33.194Z,8.37
2019-01-18T18:14:30.820Z,5.70
2019-01-18T18:17:34.343Z,8.23
2019-01-18T18:20:49.753Z,10.70
2019-01-18T18:24:13.877Z,6.87
2019-01-18T18:27:40.380Z,5.77
2019-01-18T18:30:42.107Z,6.83
2019-01-18T18:33:25.139Z,5.83
2019-01-18T18:36:31.445Z,5.80
2019-01-18T18:39:59.072Z,7.43
2019-01-18T18:43:14.542Z,5.17
2019-01-18T18:46:11.227Z,6.33
2019-01-18T18:48:52.624Z,6.27
2019-01-18T18:52:10.245Z,7.00
2019-01-18T18:55:39.265Z,6.30
2019-01-18T18:59:10.947Z,6.83
2019-01-18T19:02:08.419Z,8.10
2019-01-18T19:05:19.587Z,7.77
2019-01-18T19:09:05.378Z,7.23
2019-01-18T19:12:09.977Z,6.00
2019-01-18T19:15:08.259Z,5.90
2019-01-18T19:18:07.833Z,8.37
2019-01-18T19:21:19.102Z,5.87
2019-01-18T19:23:56.190Z,7.27
2019-01-18T19:27:10.998Z,5.93
2019-01-18T19:30:26.170Z,6.50
2019-01-18T19:33:10.187Z,6.07
2019-01-18T19:36:40.536Z,7.20
2019-01-18T19:39:37.722Z,6.67
2019-01-18T19:42:36.534Z,6.73
2019-01-18T19:45:45.823Z,8.23
2019-01-18T19:48:33.003Z,6.73
2019-01-18T19:51:48.563Z,7.03
2019-01-18T19:54:50.720Z,6.90
2019-01-18T19:57:59.132Z,6.67
2019-01-18T20:01:11.101Z,12.27
2019-01-18T20:04:32.810Z,6.47
2019-01-18T20:07:47.753Z,8.83
2019-01-18T20:10:57.223Z,7.80
2019-01-18T20:14:00.661Z,7.47
2019-01-18T20:16:53.834Z,8.60
2019-01-18T20:19:56.101Z,7.77
2019-01-18T20:23:08.361Z,7.57
2019-01-18T20:26:23.581Z,7.73
2019-01-18T20:29:34.974Z,7.87
2019-01-18T20:32:42.889Z,6.83
2019-01-18T20:35:57.438Z,9.73
2019-01-18T20:38:54.749Z,10.20
2019-01-18T20:42:28.542Z,10.20
2019-01-18T20:45:41.573Z,9.07
2019-01-18T20:48:45.665Z,11.30
2019-01-18T20:51:56.105Z,8.40
2019-01-18T20:54:50.539Z,10.03
2019-01-18T20:57:32.790Z,11.17
2019-01-18T21:00:35.465Z,8.87
2019-01-18T21:03:29.530Z,8.50
2019-01-18T21:06:34.543Z,9.33
2019-01-18T21:09:49.093Z,8.67
2019-01-18T21:12:57.235Z,9.53
2019-01-18T21:15:57.632Z,7.77
2019-01-18T21:19:10.289Z,10.60
2019-01-18T21:22:30.780Z,8.80
2019-01-18T21:25:50.983Z,10.37
2019-01-18T21:28:59.574Z,10.40
2019-01-18T21:32:04.976Z,12.53
2019-01-18T21:35:29.401Z,11.20
2019-01-18T21:38:43.261Z,9.17
2019-01-18T21:41:35.449Z,11.17
2019-01-18T21:44:42.190Z,8.07
2019-01-18T21:47:56.878Z,10.83
2019-01-18T21:51:12.656Z,8.17
2019-01-18T21:53:48.731Z,9.07
2019-01-18T21:57:19.329Z,9.63
2019-01-18T22:00:21.895Z,8.20
2019-01-18T22:03:24.778Z,8.20
2019-01-18T22:06:26.201Z,8.93
2019-01-18T22:09:14.572Z,9.53
2019-01-18T22:12:31.788Z,9.77
2019-01-18T22:15:55.677Z,12.30
2019-01-18T22:18:44.204Z,13.00
2019-01-18T22:21:51.049Z,10.07
2019-01-18T22:24:56.345Z,10.60
2019-01-18T22:28:00.648Z,9.03
2019-01-18T22:31:06.380Z,12.87
2019-01-18T22:33:52.599Z,12.57
2019-01-18T22:36:57.908Z,11.20
2019-01-18T22:40:05.879Z,10.57
2019-01-18T22:43:35.807Z,13.13
2019-01-18T22:47:02.716Z,9.07
2019-01-18T22:50:01.435Z,9.17
2019-01-18T22:53:03.862Z,11.17
2019-01-18T22:56:00.045Z,11.20
2019-01-18T22:59:14.560Z,11.30
2019-01-18T23:02:19.316Z,9.60
2019-01-18T23:05:27.838Z,10.33
2019-01-18T23:08:32.132Z,9.43
2019-01-18T23:11:41.674Z,10.87
2019-01-18T23:14:48.984Z,11.03
2019-01-18T23:17:59.965Z,8.83
2019-01-18T23:21:09.827Z,10.80
2019-01-18T23:23:54.157Z,12.37
2019-01-18T23:26:50.630Z,11.50
2019-01-18T23:29:52.494Z,9.63
2019-01-18T23:33:00.518Z,13.13
2019-01-18T23:36:04.899Z,10.87
2019-01-18T23:39:20.475Z,9.57
2019-01-18T23:42:52.008Z,12.80
2019-01-18T23:45:52.431Z,9.03
2019-01-18T23:49:14.188Z,10.53
2019-01-18T23:52:19.441Z,11.03
2019-01-18T23:55:06.257Z,8.87
2019-01-18T23:58:32.725Z,10.03
